Time;durP1;ratioP1;P1;durP2;ratioP2;P2;SDS_P1;SDS_P2;PMS_P1;PMS_P2;Temp;Humidity;BMP_temperature;BMP_pressure;BME280_temperature;BME280_humidity;BME280_pressure;Samples;Min_cycle;Max_cycle;Signal;HPM_P1;HPM_P2
2022/06/08 00:02:06;;;;;;;2.47;2.28;;;10.70;99.90;;;;;;5140867;27;20477;-74
2022/06/08 00:04:31;;;;;;;2.20;2.00;;;10.70;99.90;;;;;;5140359;27;20070;-74
2022/06/08 00:06:58;;;;;;;4.90;2.13;;;10.70;99.90;;;;;;5122042;27;20058;-74
2022/06/08 00:09:23;;;;;;;3.13;2.75;;;10.80;99.90;;;;;;5123431;27;20035;-75
2022/06/08 00:11:49;;;;;;;4.85;3.85;;;10.70;99.90;;;;;;5119056;27;20456;-74
2022/06/08 00:14:15;;;;;;;6.95;3.58;;;10.70;99.90;;;;;;5122297;27;20397;-75
2022/06/08 00:16:41;;;;;;;3.95;3.00;;;10.70;99.90;;;;;;5140077;27;20484;-74
2022/06/08 00:19:07;;;;;;;3.97;3.33;;;10.70;99.90;;;;;;5138760;27;20485;-74
2022/06/08 00:21:33;;;;;;;3.63;3.15;;;10.70;99.90;;;;;;5142569;27;20073;-74
2022/06/08 00:23:59;;;;;;;5.68;4.40;;;10.70;99.90;;;;;;5140725;27;20473;-74
2022/06/08 00:26:25;;;;;;;8.25;6.05;;;10.70;99.90;;;;;;5143763;27;20041;-75
2022/06/08 00:28:52;;;;;;;6.32;5.30;;;10.70;99.90;;;;;;5142321;27;20129;-74
2022/06/08 00:31:18;;;;;;;6.63;4.47;;;10.70;99.90;;;;;;5121028;27;20427;-75
2022/06/08 00:33:43;;;;;;;7.65;4.65;;;10.70;99.90;;;;;;5124847;27;20047;-74
2022/06/08 00:36:09;;;;;;;4.90;3.35;;;10.70;99.90;;;;;;5119103;27;20046;-74
2022/06/08 00:38:35;;;;;;;3.58;2.95;;;10.70;99.90;;;;;;5144005;27;20031;-74
2022/06/08 00:41:41;;;;;;;6.88;5.05;;;10.70;99.90;;;;;;5123855;27;20066;-74
2022/06/08 00:44:16;;;;;;;5.22;4.43;;;10.70;99.90;;;;;;5141169;27;20050;-74
2022/06/08 00:46:42;;;;;;;5.47;4.93;;;10.60;99.90;;;;;;5120040;27;20549;-74
2022/06/08 00:49:19;;;;;;;6.95;5.75;;;10.60;99.90;;;;;;5123863;27;20030;-74
2022/06/08 00:51:45;;;;;;;6.88;5.88;;;10.70;99.90;;;;;;5137787;27;20537;-74
2022/06/08 00:54:17;;;;;;;6.97;5.70;;;10.70;99.90;;;;;;5125650;27;20420;-74
2022/06/08 00:56:50;;;;;;;11.05;6.90;;;10.70;99.90;;;;;;5118495;27;20672;-74
2022/06/08 00:59:16;;;;;;;8.00;7.18;;;10.80;99.90;;;;;;5120808;27;20480;-75
2022/06/08 01:01:42;;;;;;;7.22;6.53;;;10.80;99.90;;;;;;5122766;27;20083;-75
2022/06/08 01:04:11;;;;;;;6.75;6.07;;;10.80;99.90;;;;;;5126719;27;20102;-74
2022/06/08 01:06:39;;;;;;;5.88;5.30;;;10.90;99.90;;;;;;5141792;27;20035;-74
2022/06/08 01:09:05;;;;;;;7.60;5.63;;;10.90;99.90;;;;;;5140049;27;20038;-74
2022/06/08 01:11:43;;;;;;;6.65;5.18;;;10.90;99.90;;;;;;5122036;27;20042;-74
2022/06/08 01:14:15;;;;;;;8.43;5.43;;;10.90;99.90;;;;;;5126895;27;20058;-74
2022/06/08 01:16:45;;;;;;;10.85;7.38;;;10.90;99.90;;;;;;5120572;27;20035;-75
2022/06/08 01:19:12;;;;;;;9.43;7.88;;;10.90;99.90;;;;;;5125949;27;20511;-74
2022/06/08 01:21:38;;;;;;;7.28;6.63;;;10.90;99.90;;;;;;5124619;27;20562;-75
2022/06/08 01:24:07;;;;;;;7.15;5.65;;;10.90;99.90;;;;;;5119751;27;20122;-74
2022/06/08 01:26:39;;;;;;;6.85;6.15;;;10.90;99.90;;;;;;5141238;27;20165;-74
2022/06/08 01:29:22;;;;;;;8.43;6.80;;;11.00;99.90;;;;;;5124986;27;20045;-74
2022/06/08 01:32:15;;;;;;;7.00;6.35;;;11.00;99.90;;;;;;5120220;27;20038;-74
2022/06/08 01:34:50;;;;;;;;;;;11.00;99.90;;;;;;5142024;27;20129;-74
2022/06/08 01:37:54;;;;;;;10.13;7.63;;;11.00;99.90;;;;;;5136729;27;19915;-74
2022/06/08 01:40:38;;;;;;;10.07;7.88;;;11.10;99.90;;;;;;5141816;27;20031;-74
2022/06/08 01:43:33;;;;;;;10.63;8.00;;;11.10;99.90;;;;;;5119265;27;20047;-74
2022/06/08 01:46:08;;;;;;;10.40;7.60;;;11.20;99.90;;;;;;5119841;27;20480;-74
2022/06/08 01:48:46;;;;;;;10.68;8.65;;;11.20;99.90;;;;;;5126433;27;20051;-75
2022/06/08 01:51:18;;;;;;;12.43;9.68;;;11.30;99.90;;;;;;5121137;27;20046;-74
2022/06/08 01:54:19;;;;;;;12.80;10.48;;;11.30;99.90;;;;;;5118261;27;20046;-74
2022/06/08 01:57:12;;;;;;;11.93;9.98;;;11.30;99.90;;;;;;5120731;27;20058;-75
2022/06/08 02:00:09;;;;;;;14.05;10.55;;;11.40;99.90;;;;;;5118926;27;20061;-75
2022/06/08 02:02:46;;;;;;;12.18;10.85;;;11.40;99.90;;;;;;5143942;27;20039;-74
2022/06/08 02:05:24;;;;;;;14.38;11.43;;;11.40;99.90;;;;;;5142545;27;20035;-74
2022/06/08 02:07:56;;;;;;;16.08;11.77;;;11.50;99.90;;;;;;5141152;27;20039;-74
2022/06/08 02:10:49;;;;;;;13.88;11.13;;;11.50;99.90;;;;;;5144467;27;20034;-74
2022/06/08 02:13:30;;;;;;;14.35;11.25;;;11.50;99.90;;;;;;5124079;27;20035;-74
2022/06/08 02:16:05;;;;;;;13.45;10.95;;;11.60;99.90;;;;;;5147444;27;20092;-74
2022/06/08 02:18:37;;;;;;;14.10;10.88;;;11.60;99.90;;;;;;5128100;27;20050;-74
2022/06/08 02:21:16;;;;;;;14.15;12.00;;;11.70;99.90;;;;;;5118273;27;20073;-75
2022/06/08 02:24:12;;;;;;;18.38;11.85;;;11.70;99.90;;;;;;5126257;27;20034;-74
2022/06/08 02:26:52;;;;;;;15.82;13.63;;;11.70;99.90;;;;;;5123289;27;20062;-74
2022/06/08 02:29:28;;;;;;;25.77;19.77;;;11.80;99.90;;;;;;5118830;27;20043;-74
2022/06/08 02:32:00;;;;;;;22.17;18.77;;;11.80;99.90;;;;;;5125003;27;20035;-74
2022/06/08 02:34:36;;;;;;;22.98;15.85;;;11.90;99.90;;;;;;5141714;27;20069;-74
2022/06/08 02:37:13;;;;;;;20.48;15.77;;;12.00;99.90;;;;;;5121439;27;20035;-74
2022/06/08 02:39:46;;;;;;;20.27;15.75;;;12.00;99.90;;;;;;5124947;27;20035;-74
2022/06/08 02:42:34;;;;;;;26.25;19.02;;;12.00;99.90;;;;;;5129936;27;20043;-75
2022/06/08 02:45:17;;;;;;;18.98;15.63;;;12.10;99.90;;;;;;5122226;27;20045;-74
2022/06/08 02:47:45;;;;;;;;;;;12.10;99.90;;;;;;5128383;27;20042;-74
2022/06/08 02:50:14;;;;;;;23.30;17.52;;;12.10;99.90;;;;;;5140495;27;19972;-75
2022/06/08 02:52:43;;;;;;;24.63;19.77;;;12.20;99.90;;;;;;5141849;27;20047;-75
2022/06/08 02:55:27;;;;;;;19.95;17.25;;;12.20;99.90;;;;;;5122393;27;20130;-74
2022/06/08 02:58:21;;;;;;;24.90;18.80;;;12.30;99.90;;;;;;5122824;27;20042;-75
2022/06/08 03:00:56;;;;;;;25.67;18.92;;;12.30;99.90;;;;;;5142807;27;20049;-74
2022/06/08 03:03:33;;;;;;;26.70;19.65;;;12.30;99.90;;;;;;5148251;27;20041;-74
2022/06/08 03:06:26;;;;;;;27.50;21.27;;;12.30;99.90;;;;;;5141302;27;20034;-74
2022/06/08 03:08:57;;;;;;;29.10;19.95;;;12.30;99.90;;;;;;5122214;27;20051;-74
2022/06/08 03:11:26;;;;;;;27.35;21.58;;;12.40;99.90;;;;;;5107907;27;20042;-74
2022/06/08 03:14:01;;;;;;;30.50;21.58;;;12.40;99.90;;;;;;5123715;27;20047;-75
2022/06/08 03:16:31;;;;;;;30.23;21.33;;;12.40;99.90;;;;;;5120013;27;20035;-74
2022/06/08 03:18:57;;;;;;;29.25;21.20;;;12.30;99.90;;;;;;5137440;27;20027;-74
2022/06/08 03:21:23;;;;;;;28.77;21.08;;;12.40;99.90;;;;;;5129203;27;20490;-74
2022/06/08 03:23:49;;;;;;;29.58;21.58;;;12.40;99.90;;;;;;5125285;27;20039;-74
2022/06/08 03:26:17;;;;;;;27.95;20.83;;;12.40;99.90;;;;;;5124462;27;20049;-74
2022/06/08 03:28:43;;;;;;;31.88;21.73;;;12.40;99.90;;;;;;5123961;27;20058;-74
2022/06/08 03:31:09;;;;;;;31.23;21.27;;;12.40;99.90;;;;;;5129911;27;20405;-75
2022/06/08 03:33:34;;;;;;;28.75;20.23;;;12.40;99.90;;;;;;5146365;27;20392;-74
2022/06/08 03:36:00;;;;;;;29.10;21.52;;;12.40;99.90;;;;;;5142626;27;20045;-74
2022/06/08 03:38:25;;;;;;;28.25;21.48;;;12.40;99.90;;;;;;5118926;27;20122;-74
2022/06/08 03:40:51;;;;;;;27.13;20.48;;;12.50;99.90;;;;;;5131829;27;20971;-74
2022/06/08 03:43:17;;;;;;;34.13;21.73;;;12.50;99.90;;;;;;5118574;27;20520;-74
2022/06/08 03:45:46;;;;;;;32.50;22.05;;;12.50;99.90;;;;;;5123494;27;20519;-74
2022/06/08 03:48:12;;;;;;;28.23;21.80;;;12.50;99.90;;;;;;5144248;27;20038;-74
2022/06/08 03:50:41;;;;;;;27.88;21.50;;;12.50;99.90;;;;;;5139690;27;20190;-74
2022/06/08 03:53:15;;;;;;;32.22;21.00;;;12.60;99.90;;;;;;5139330;27;20031;-74
2022/06/08 03:55:41;;;;;;;29.20;22.42;;;12.60;99.90;;;;;;5124563;27;20070;-74
2022/06/08 03:58:07;;;;;;;28.25;21.80;;;12.60;99.90;;;;;;5123719;27;20066;-74
2022/06/08 04:00:34;;;;;;;30.23;21.52;;;12.60;99.90;;;;;;5142206;27;20058;-74
2022/06/08 04:03:01;;;;;;;32.38;22.42;;;12.60;99.90;;;;;;5142823;27;20080;-74
2022/06/08 04:05:27;;;;;;;29.85;22.77;;;12.70;99.90;;;;;;5142946;27;20038;-74
2022/06/08 04:07:53;;;;;;;34.15;23.30;;;12.70;99.90;;;;;;5125352;27;20046;-74
2022/06/08 04:10:19;;;;;;;34.00;22.25;;;12.70;99.90;;;;;;5122289;27;20107;-74
2022/06/08 04:12:44;;;;;;;30.75;23.02;;;12.70;99.90;;;;;;5142281;27;20034;-74
2022/06/08 04:15:10;;;;;;;33.10;22.25;;;12.80;99.90;;;;;;5123025;27;20505;-74
2022/06/08 04:17:36;;;;;;;29.98;23.48;;;12.80;99.90;;;;;;5125173;27;20057;-74
2022/06/08 04:20:02;;;;;;;29.48;22.92;;;12.80;99.90;;;;;;5106408;27;20058;-74
2022/06/08 04:22:31;;;;;;;35.22;23.60;;;12.80;99.90;;;;;;5145769;27;20472;-74
2022/06/08 04:24:59;;;;;;;36.90;24.42;;;12.90;99.90;;;;;;5143000;27;20100;-74
2022/06/08 04:27:26;;;;;;;29.85;22.92;;;13.00;99.90;;;;;;5143785;27;20057;-74
2022/06/08 04:29:52;;;;;;;35.33;24.13;;;13.00;99.90;;;;;;5143608;27;20030;-74
2022/06/08 04:32:18;;;;;;;31.95;25.23;;;13.00;99.90;;;;;;5121625;27;20038;-74
2022/06/08 04:34:44;;;;;;;37.15;24.88;;;13.00;99.90;;;;;;5124652;27;20409;-74
2022/06/08 04:37:10;;;;;;;33.45;25.60;;;13.10;99.90;;;;;;5128439;27;21979;-74
2022/06/08 04:39:36;;;;;;;39.00;27.25;;;13.10;99.90;;;;;;5124325;27;20122;-74
2022/06/08 04:42:03;;;;;;;36.72;26.52;;;13.10;99.90;;;;;;5136475;27;20495;-74
2022/06/08 04:44:29;;;;;;;35.60;26.83;;;13.30;99.90;;;;;;5126900;27;20389;-74
2022/06/08 04:46:54;;;;;;;41.45;28.00;;;13.30;99.90;;;;;;5145673;27;20091;-74
2022/06/08 04:49:20;;;;;;;37.15;26.58;;;13.30;99.90;;;;;;5144702;27;20121;-74
2022/06/08 04:51:46;;;;;;;38.08;26.38;;;13.30;99.90;;;;;;5144287;27;20463;-74
2022/06/08 04:54:12;;;;;;;35.72;26.67;;;13.30;99.90;;;;;;5127176;27;20117;-74
2022/06/08 04:56:38;;;;;;;39.10;28.38;;;13.40;99.90;;;;;;5124128;27;20041;-74
2022/06/08 04:59:04;;;;;;;33.17;25.77;;;13.40;99.90;;;;;;5108037;27;20065;-74
2022/06/08 05:01:29;;;;;;;39.97;27.38;;;13.50;99.90;;;;;;5140501;27;20097;-74
2022/06/08 05:03:55;;;;;;;35.20;25.70;;;13.50;99.90;;;;;;5144644;27;20076;-74
2022/06/08 05:06:21;;;;;;;35.38;26.95;;;13.60;99.90;;;;;;5127279;27;20039;-74
2022/06/08 05:08:47;;;;;;;39.63;27.45;;;13.60;99.90;;;;;;5138526;27;20806;-74
2022/06/08 05:11:14;;;;;;;34.65;27.52;;;13.70;99.90;;;;;;5136124;27;20034;-74
2022/06/08 05:13:40;;;;;;;35.03;27.52;;;13.70;99.90;;;;;;5143566;27;20577;-74
2022/06/08 05:16:07;;;;;;;37.92;28.35;;;13.80;99.90;;;;;;5143555;27;20031;-74
2022/06/08 05:18:33;;;;;;;39.50;29.08;;;13.90;99.90;;;;;;5144785;27;20489;-74
2022/06/08 05:20:59;;;;;;;35.45;27.60;;;14.00;99.90;;;;;;5122772;27;20523;-74
2022/06/08 05:23:31;;;;;;;34.22;26.90;;;14.10;99.90;;;;;;5138829;27;20140;-75
2022/06/08 05:25:58;;;;;;;33.33;25.27;;;14.10;99.90;;;;;;5140848;27;20514;-74
2022/06/08 05:28:24;;;;;;;34.60;24.65;;;14.20;99.90;;;;;;5137314;27;20529;-74
2022/06/08 05:30:50;;;;;;;32.83;25.48;;;14.20;99.90;;;;;;5141254;27;20051;-75
2022/06/08 05:33:16;;;;;;;30.48;24.83;;;14.30;99.90;;;;;;5127239;27;20603;-74
2022/06/08 05:35:44;;;;;;;30.13;24.63;;;14.40;99.90;;;;;;5119018;27;20477;-74
2022/06/08 05:38:10;;;;;;;32.53;24.85;;;14.40;99.90;;;;;;5124472;27;20493;-74
2022/06/08 05:40:37;;;;;;;28.63;23.27;;;14.50;99.90;;;;;;5136229;27;20067;-74
2022/06/08 05:43:05;;;;;;;27.42;22.67;;;14.60;99.90;;;;;;5143924;27;20076;-74
2022/06/08 05:45:31;;;;;;;29.35;23.00;;;14.60;99.90;;;;;;5120365;27;20110;-74
2022/06/08 05:47:58;;;;;;;28.75;23.27;;;14.80;99.90;;;;;;5141575;27;20031;-74
2022/06/08 05:50:25;;;;;;;26.33;21.50;;;14.80;99.90;;;;;;5141952;27;20169;-74
2022/06/08 05:52:51;;;;;;;26.45;21.23;;;14.90;99.90;;;;;;5140810;27;20054;-74
2022/06/08 05:55:19;;;;;;;28.35;20.77;;;15.00;99.90;;;;;;5142736;27;20035;-74
2022/06/08 05:57:45;;;;;;;26.33;21.27;;;15.00;99.90;;;;;;5117550;27;20049;-74
2022/06/08 06:00:15;;;;;;;25.10;19.92;;;15.10;99.90;;;;;;5120346;27;20039;-74
2022/06/08 06:02:42;;;;;;;22.17;19.02;;;15.20;99.90;;;;;;5137787;27;20031;-73
2022/06/08 06:05:09;;;;;;;21.27;18.92;;;15.30;99.90;;;;;;5141763;27;20037;-74
2022/06/08 06:07:35;;;;;;;23.02;18.13;;;15.30;99.90;;;;;;5121981;27;20067;-74
2022/06/08 06:10:02;;;;;;;20.88;17.55;;;15.30;99.90;;;;;;5104934;27;20043;-73
2022/06/08 06:12:31;;;;;;;23.27;18.13;;;15.40;99.90;;;;;;5122198;27;20046;-73
2022/06/08 06:15:01;;;;;;;21.05;18.75;;;15.40;99.90;;;;;;5139267;27;20050;-74
2022/06/08 06:17:28;;;;;;;23.85;19.48;;;15.40;99.90;;;;;;5111090;27;20038;-73
2022/06/08 06:19:55;;;;;;;25.02;19.95;;;15.50;99.90;;;;;;5139261;27;20054;-75
2022/06/08 06:22:21;;;;;;;22.88;19.13;;;15.50;99.90;;;;;;5118726;27;20042;-74
2022/06/08 06:24:47;;;;;;;21.45;19.17;;;15.60;99.90;;;;;;5125606;27;20035;-74
2022/06/08 06:27:13;;;;;;;25.85;21.35;;;15.80;99.90;;;;;;5130056;27;20172;-73
2022/06/08 06:29:38;;;;;;;22.23;18.70;;;15.90;99.90;;;;;;5128118;27;20043;-73
2022/06/08 06:32:07;;;;;;;21.15;18.58;;;16.00;99.90;;;;;;5116156;27;20034;-73
2022/06/08 06:34:33;;;;;;;19.73;16.38;;;16.10;99.90;;;;;;5127740;27;20035;-73
2022/06/08 06:36:59;;;;;;;21.98;16.77;;;16.30;99.90;;;;;;5123603;27;20050;-73
2022/06/08 06:39:26;;;;;;;20.95;16.17;;;16.40;99.90;;;;;;5143044;27;20051;-73
2022/06/08 06:41:52;;;;;;;18.73;15.77;;;16.50;99.90;;;;;;5127785;27;20050;-73
2022/06/08 06:44:18;;;;;;;22.95;14.85;;;16.60;99.90;;;;;;5132638;27;20557;-73
2022/06/08 06:46:44;;;;;;;15.63;13.93;;;16.70;99.90;;;;;;5154036;27;20121;-73
2022/06/08 06:49:10;;;;;;;15.95;13.63;;;16.80;99.90;;;;;;5146739;27;20057;-73
2022/06/08 06:51:36;;;;;;;18.70;14.30;;;17.00;99.90;;;;;;5140321;27;20041;-73
2022/06/08 06:54:03;;;;;;;15.98;12.95;;;17.00;99.90;;;;;;5134736;27;20038;-73
2022/06/08 06:56:29;;;;;;;15.23;13.30;;;17.20;99.90;;;;;;5151103;27;20060;-74
2022/06/08 06:58:55;;;;;;;12.75;11.00;;;17.30;99.90;;;;;;5146444;27;20034;-73
2022/06/08 07:01:20;;;;;;;16.80;11.00;;;17.50;99.90;;;;;;5122910;27;20038;-73
2022/06/08 07:03:46;;;;;;;11.02;9.73;;;17.60;99.90;;;;;;5141380;27;20041;-73
2022/06/08 07:06:12;;;;;;;13.15;10.73;;;17.70;99.90;;;;;;5147673;27;20039;-73
2022/06/08 07:08:38;;;;;;;15.60;11.00;;;17.80;99.90;;;;;;5132558;27;20114;-73
2022/06/08 07:13:49;;;;;;;10.85;9.18;;;18.10;99.90;;;;;;5129576;27;20042;-74
2022/06/08 07:16:15;;;;;;;10.32;7.95;;;18.10;99.90;;;;;;5132073;27;20054;-75
2022/06/08 07:18:41;;;;;;;10.07;8.70;;;18.00;99.90;;;;;;5128657;27;20431;-75
2022/06/08 07:21:09;;;;;;;9.63;8.65;;;18.10;99.90;;;;;;5133774;27;20031;-75
2022/06/08 07:23:34;;;;;;;9.32;8.13;;;18.30;99.90;;;;;;5124478;27;20030;-75
2022/06/08 07:26:00;;;;;;;8.90;8.00;;;18.30;99.90;;;;;;5132810;27;20086;-75
2022/06/08 07:28:26;;;;;;;10.93;7.97;;;18.40;99.90;;;;;;5148230;27;20133;-75
2022/06/08 07:30:52;;;;;;;8.77;7.18;;;18.50;99.90;;;;;;5126503;27;20055;-75
2022/06/08 07:33:19;;;;;;;11.85;8.00;;;18.60;99.90;;;;;;5148032;27;20035;-73
2022/06/08 07:35:45;;;;;;;10.15;7.03;;;18.70;99.90;;;;;;5121731;27;20184;-74
2022/06/08 07:38:11;;;;;;;8.73;6.40;;;18.70;99.90;;;;;;5145644;27;20035;-74
2022/06/08 07:40:37;;;;;;;11.30;6.53;;;18.80;99.90;;;;;;5109074;27;20042;-74
2022/06/08 07:43:03;;;;;;;7.20;5.90;;;18.90;99.90;;;;;;5112299;27;20035;-74
2022/06/08 07:45:29;;;;;;;9.25;5.78;;;18.90;99.90;;;;;;5135098;27;20043;-74
2022/06/08 07:50:41;;;;;;;7.70;6.07;;;19.10;99.90;;;;;;5122424;27;20042;-75
2022/06/08 07:53:07;;;;;;;8.38;5.63;;;19.10;99.90;;;;;;5129250;27;20195;-73
2022/06/08 07:55:33;;;;;;;7.28;5.20;;;19.10;99.90;;;;;;5138257;27;20073;-73
2022/06/08 07:57:59;;;;;;;9.30;5.55;;;19.20;99.90;;;;;;5143561;27;20054;-73
2022/06/08 08:00:26;;;;;;;8.15;5.25;;;19.30;99.90;;;;;;5131260;27;20035;-73
2022/06/08 08:02:52;;;;;;;8.60;5.38;;;19.40;99.90;;;;;;5124610;27;20039;-73
2022/06/08 08:05:19;;;;;;;7.72;4.55;;;19.40;99.90;;;;;;5146892;27;20031;-73
2022/06/08 08:07:45;;;;;;;6.53;5.10;;;19.50;99.90;;;;;;5138539;27;20125;-72
2022/06/08 08:10:18;;;;;;;4.90;3.97;;;19.60;99.90;;;;;;5154318;27;20130;-73
2022/06/08 08:12:44;;;;;;;5.88;4.07;;;19.70;99.90;;;;;;5127921;27;20070;-72
2022/06/08 08:15:11;;;;;;;8.05;5.25;;;19.80;99.90;;;;;;5100128;27;20062;-72
2022/06/08 08:17:36;;;;;;;6.30;5.35;;;19.90;99.90;;;;;;5143622;27;20034;-72
2022/06/08 08:20:04;;;;;;;8.02;5.10;;;20.10;99.90;;;;;;5137834;27;20034;-73
2022/06/08 08:22:30;;;;;;;7.53;5.60;;;20.10;99.90;;;;;;5126212;27;20038;-72
2022/06/08 08:24:56;;;;;;;7.85;5.10;;;20.20;99.90;;;;;;5123733;27;20039;-72
2022/06/08 08:27:21;;;;;;;6.55;5.13;;;20.10;99.90;;;;;;5144647;27;20064;-72
2022/06/08 08:29:48;;;;;;;6.93;5.97;;;20.10;99.90;;;;;;5142480;27;20031;-72
2022/06/08 08:32:13;;;;;;;7.78;5.82;;;20.20;99.90;;;;;;5130732;27;20045;-72
2022/06/08 08:34:39;;;;;;;7.47;5.47;;;20.40;99.90;;;;;;5130264;27;20035;-72
2022/06/08 08:37:05;;;;;;;8.07;4.63;;;20.50;99.90;;;;;;5121322;27;20077;-72
2022/06/08 08:39:32;;;;;;;6.50;5.30;;;20.70;99.90;;;;;;5131230;27;20047;-71
2022/06/08 08:44:53;;;;;;;8.10;5.38;;;20.90;99.90;;;;;;5129653;27;20046;-73
2022/06/08 08:47:32;;;;;;;8.27;5.63;;;21.00;99.90;;;;;;5123455;27;20044;-73
2022/06/08 08:50:18;;;;;;;6.47;4.38;;;21.10;99.90;;;;;;5149537;27;20035;-73
2022/06/08 08:52:50;;;;;;;5.18;4.35;;;21.40;99.90;;;;;;5130733;27;20098;-72
2022/06/08 08:55:28;;;;;;;5.25;3.88;;;21.60;99.90;;;;;;5132699;27;20042;-73
2022/06/08 08:58:17;;;;;;;6.03;3.85;;;21.50;99.90;;;;;;5131018;27;20449;-72
2022/06/08 09:00:48;;;;;;;6.18;4.40;;;21.50;99.90;;;;;;5119669;27;20054;-72
2022/06/08 09:03:17;;;;;;;4.77;3.73;;;21.50;99.90;;;;;;5148301;27;20079;-72
2022/06/08 09:05:44;;;;;;;4.75;3.67;;;21.40;99.90;;;;;;5129417;27;20374;-72
2022/06/08 09:08:11;;;;;;;4.75;3.40;;;21.40;99.90;;;;;;5126887;27;20139;-72
2022/06/08 09:10:38;;;;;;;5.93;3.70;;;21.30;99.90;;;;;;5120079;27;20043;-73
2022/06/08 09:13:05;;;;;;;5.82;4.20;;;21.30;99.90;;;;;;5121553;27;20087;-72
2022/06/08 09:15:44;;;;;;;7.22;4.80;;;21.30;99.90;;;;;;5146190;27;20172;-72
2022/06/08 09:18:30;;;;;;;6.30;5.45;;;21.20;99.90;;;;;;5131768;27;20615;-72
2022/06/08 09:20:57;;;;;;;7.72;5.20;;;21.00;99.90;;;;;;5134105;27;20046;-72
2022/06/08 09:23:30;;;;;;;7.30;4.55;;;20.90;99.90;;;;;;5134533;27;20047;-72
2022/06/08 09:26:15;;;;;;;6.95;5.60;;;20.80;99.90;;;;;;5134172;27;20066;-72
2022/06/08 09:28:41;;;;;;;6.15;4.60;;;20.80;99.90;;;;;;5144700;27;20083;-72
2022/06/08 09:31:30;;;;;;;5.93;4.50;;;20.80;99.90;;;;;;5145313;27;20031;-72
2022/06/08 09:34:04;;;;;;;5.13;4.63;;;20.70;99.90;;;;;;5150086;27;20511;-72
2022/06/08 09:36:30;;;;;;;7.30;4.80;;;20.70;99.90;;;;;;5142977;27;20034;-72
2022/06/08 09:38:57;;;;;;;4.97;4.07;;;20.70;99.90;;;;;;5149742;27;20033;-72
2022/06/08 09:41:38;;;;;;;6.97;4.72;;;20.70;99.90;;;;;;5141039;27;20028;-72
2022/06/08 09:44:18;;;;;;;5.65;4.10;;;20.80;99.90;;;;;;5145463;27;20084;-72
2022/06/08 09:53:44;;;;;;;5.40;3.90;;;21.20;99.90;;;;;;5132507;27;20042;-72
2022/06/08 09:56:18;;;;;;;6.72;4.10;;;21.10;99.90;;;;;;5133639;27;20039;-72
2022/06/08 09:59:01;;;;;;;6.53;3.08;;;21.10;99.90;;;;;;5129582;27;20054;-72
2022/06/08 10:01:46;;;;;;;4.43;3.08;;;21.20;99.90;;;;;;5126042;27;20037;-72
2022/06/08 10:04:37;;;;;;;5.63;3.00;;;21.40;99.90;;;;;;5125306;27;20039;-72
2022/06/08 10:07:27;;;;;;;3.70;2.50;;;21.70;99.90;;;;;;5129564;27;20387;-72
2022/06/08 10:09:59;;;;;;;6.50;3.15;;;21.80;99.90;;;;;;5132732;27;20100;-72
2022/06/08 10:12:38;;;;;;;4.32;3.10;;;21.90;99.90;;;;;;5132640;27;20505;-72
2022/06/08 10:15:27;;;;;;;5.00;2.83;;;22.00;99.90;;;;;;5130591;27;20493;-72
2022/06/08 10:18:01;;;;;;;6.53;3.38;;;22.00;99.90;;;;;;5123766;27;20736;-72
2022/06/08 10:20:36;;;;;;;8.05;3.78;;;22.00;99.90;;;;;;5133745;27;20714;-72
2022/06/08 10:23:28;;;;;;;4.40;3.45;;;21.90;99.90;;;;;;5142649;27;21714;-72
2022/06/08 10:25:59;;;;;;;8.02;3.78;;;22.20;99.90;;;;;;5122720;27;20125;-72
2022/06/08 10:28:41;;;;;;;6.65;3.65;;;22.30;99.90;;;;;;5125435;27;21205;-72
2022/06/08 10:31:42;;;;;;;6.17;3.93;;;22.30;99.90;;;;;;5108743;27;21006;-72
2022/06/08 10:34:27;;;;;;;5.75;3.85;;;22.30;99.90;;;;;;5128340;27;20062;-72
2022/06/08 10:37:22;;;;;;;5.15;3.97;;;22.30;99.90;;;;;;5124485;27;20569;-73
2022/06/08 10:39:49;;;;;;;6.18;4.22;;;22.20;99.90;;;;;;5110043;27;20809;-71
2022/06/08 10:42:40;;;;;;;5.93;4.28;;;22.30;99.90;;;;;;5142161;27;20046;-72
2022/06/08 10:45:24;;;;;;;5.80;4.70;;;22.60;99.90;;;;;;5125695;27;20397;-72
2022/06/08 10:48:03;;;;;;;9.23;4.97;;;22.70;99.90;;;;;;5123346;27;20040;-73
2022/06/08 10:50:35;;;;;;;6.22;4.65;;;22.90;99.90;;;;;;5124209;27;20051;-73
2022/06/08 10:56:23;;;;;;;5.65;4.30;;;23.10;99.90;;;;;;5132000;27;20020;-73
2022/06/08 10:59:04;;;;;;;5.88;4.53;;;23.10;99.90;;;;;;5125790;27;20477;-73
2022/06/08 11:01:41;;;;;;;5.70;3.85;;;23.10;99.90;;;;;;5122544;27;20122;-73
2022/06/08 11:04:27;;;;;;;7.18;4.50;;;23.00;99.90;;;;;;5135070;27;20548;-73
2022/06/08 11:07:16;;;;;;;5.55;4.03;;;23.00;99.90;;;;;;5127769;27;20599;-73
2022/06/08 11:09:44;;;;;;;6.88;3.42;;;22.90;99.90;;;;;;5135036;27;20069;-73
2022/06/08 11:12:13;;;;;;;6.32;2.78;;;22.80;99.90;;;;;;5135642;27;20043;-73
2022/06/08 11:14:48;;;;;;;7.70;3.40;;;22.80;99.90;;;;;;5134469;27;20485;-73
2022/06/08 11:17:19;;;;;;;4.95;3.40;;;22.70;99.90;;;;;;5144013;27;20493;-73
2022/06/08 11:19:46;;;;;;;6.93;3.72;;;22.50;99.90;;;;;;5126155;27;20502;-73
2022/06/08 11:22:31;;;;;;;4.45;3.30;;;22.40;99.90;;;;;;5137736;27;20034;-73
2022/06/08 11:25:01;;;;;;;6.78;3.15;;;22.10;99.90;;;;;;5127697;27;20035;-73
2022/06/08 11:27:38;;;;;;;8.55;3.20;;;21.90;99.90;;;;;;5133079;27;20035;-73
2022/06/08 11:30:23;;;;;;;5.10;3.15;;;21.60;99.90;;;;;;5138033;27;20027;-73
2022/06/08 11:32:52;;;;;;;6.00;2.70;;;21.40;99.90;;;;;;5122032;27;20077;-73
2022/06/08 11:35:46;;;;;;;4.05;2.30;;;21.20;99.90;;;;;;5132079;27;20070;-73
2022/06/08 11:38:30;;;;;;;8.95;2.45;;;21.00;99.90;;;;;;5144761;27;20197;-72
2022/06/08 11:41:19;;;;;;;3.55;2.53;;;20.80;99.90;;;;;;5145574;27;20520;-72
2022/06/08 11:43:48;;;;;;;7.65;2.40;;;20.80;99.90;;;;;;5118727;27;20630;-72
2022/06/08 11:46:40;;;;;;;9.73;2.22;;;20.80;99.90;;;;;;5132460;27;20496;-72
2022/06/08 11:49:37;;;;;;;4.10;1.20;;;20.90;99.90;;;;;;5131177;27;20507;-73
2022/06/08 11:52:24;;;;;;;6.95;1.38;;;20.80;99.90;;;;;;5132018;27;20070;-72
2022/06/08 11:55:09;;;;;;;5.13;1.30;;;20.40;99.90;;;;;;5128198;27;20081;-72
2022/06/08 11:57:40;;;;;;;4.25;1.20;;;19.90;99.90;;;;;;5121208;27;20553;-72
2022/06/08 12:00:19;;;;;;;4.47;1.25;;;19.50;99.90;;;;;;5124040;27;20542;-73
2022/06/08 12:02:49;;;;;;;3.83;1.42;;;19.30;99.90;;;;;;5147676;27;20755;-72
2022/06/08 12:05:20;;;;;;;7.95;1.70;;;19.20;99.90;;;;;;5127054;27;20043;-72
2022/06/08 12:07:59;;;;;;;5.55;1.67;;;18.80;99.90;;;;;;5142771;27;20035;-72
2022/06/08 12:10:28;;;;;;;9.32;1.60;;;18.60;99.90;;;;;;5148928;27;20039;-73
2022/06/08 12:12:55;;;;;;;8.73;1.88;;;18.40;99.90;;;;;;5130958;27;20049;-73
2022/06/08 12:15:26;;;;;;;5.40;1.83;;;18.20;99.90;;;;;;5109915;27;20504;-73
2022/06/08 12:17:53;;;;;;;6.22;1.55;;;18.00;99.90;;;;;;5105320;27;20849;-73
2022/06/08 12:20:38;;;;;;;6.35;1.88;;;17.70;99.90;;;;;;5142449;27;20523;-72
2022/06/08 12:23:04;;;;;;;8.00;1.80;;;17.60;99.90;;;;;;5144919;27;20038;-72
2022/06/08 12:25:31;;;;;;;3.47;1.50;;;17.60;99.90;;;;;;5129973;27;20150;-72
2022/06/08 12:28:03;;;;;;;5.95;2.10;;;17.20;99.90;;;;;;5123412;27;20485;-72
2022/06/08 12:30:33;;;;;;;7.55;2.28;;;17.00;99.90;;;;;;5129994;27;20488;-72
2022/06/08 12:33:03;;;;;;;6.85;2.90;;;16.90;99.90;;;;;;5131386;27;20521;-73
2022/06/08 12:35:50;;;;;;;9.20;3.22;;;16.80;99.90;;;;;;5129905;27;20421;-73
2022/06/08 12:38:33;;;;;;;5.88;3.40;;;16.80;99.90;;;;;;5128454;27;20037;-73
2022/06/08 12:41:15;;;;;;;7.22;3.90;;;16.90;99.90;;;;;;5139406;27;20374;-73
2022/06/08 12:43:48;;;;;;;7.40;4.20;;;17.00;99.90;;;;;;5132156;27;20079;-73
2022/06/08 12:46:17;;;;;;;9.15;4.28;;;17.00;99.90;;;;;;5135661;27;20554;-73
2022/06/08 12:48:55;;;;;;;9.30;4.82;;;17.20;99.90;;;;;;5128663;27;20408;-73
2022/06/08 12:51:23;;;;;;;10.30;4.57;;;17.30;99.90;;;;;;5129638;27;20035;-73
2022/06/08 12:53:49;;;;;;;10.20;4.63;;;17.20;99.90;;;;;;5140165;27;20053;-73
2022/06/08 12:56:17;;;;;;;11.05;4.00;;;17.30;99.90;;;;;;5124554;27;20035;-72
2022/06/08 12:58:45;;;;;;;12.00;4.75;;;17.20;99.90;;;;;;5146416;27;20045;-73
2022/06/08 13:01:12;;;;;;;7.25;4.25;;;17.20;99.90;;;;;;5151530;27;20504;-72
2022/06/08 13:03:39;;;;;;;10.50;5.03;;;17.20;99.90;;;;;;5099736;27;20030;-72
2022/06/08 13:06:05;;;;;;;9.00;5.88;;;17.30;99.90;;;;;;5123060;27;20157;-73
2022/06/08 13:08:30;;;;;;;14.13;6.05;;;17.30;99.90;;;;;;5126001;27;20138;-73
2022/06/08 13:11:00;;;;;;;10.90;6.65;;;17.30;99.90;;;;;;5134420;27;20087;-73
2022/06/08 13:13:30;;;;;;;11.75;7.45;;;17.30;99.90;;;;;;5129762;27;20065;-73
2022/06/08 13:15:57;;;;;;;12.98;7.53;;;17.40;99.90;;;;;;5129946;27;20084;-73
2022/06/08 13:18:28;;;;;;;12.85;7.90;;;17.60;99.90;;;;;;5113872;27;20035;-73
2022/06/08 13:20:56;;;;;;;14.13;7.53;;;17.70;99.90;;;;;;5131753;27;20035;-73